sensor_id;sensor_type;location;lat;lon;timestamp;P1;durP1;ratioP1;P2;durP2;ratioP2
44850;SDS011;30583;48.714;9.386;2022-12-29T00:01:28;14.50;;;8.82;;
44850;SDS011;30583;48.714;9.386;2022-12-29T00:03:54;13.15;;;8.18;;
44850;SDS011;30583;48.714;9.386;2022-12-29T00:06:19;14.23;;;8.60;;
44850;SDS011;30583;48.714;9.386;2022-12-29T00:08:45;14.48;;;8.23;;
44850;SDS011;30583;48.714;9.386;2022-12-29T00:11:14;12.27;;;7.90;;
44850;SDS011;30583;48.714;9.386;2022-12-29T00:13:42;13.38;;;7.82;;
44850;SDS011;30583;48.714;9.386;2022-12-29T00:16:27;12.27;;;8.50;;
44850;SDS011;30583;48.714;9.386;2022-12-29T00:18:53;13.35;;;8.43;;
44850;SDS011;30583;48.714;9.386;2022-12-29T00:21:20;16.02;;;7.90;;
44850;SDS011;30583;48.714;9.386;2022-12-29T00:24:05;11.82;;;7.13;;
44850;SDS011;30583;48.714;9.386;2022-12-29T00:29:23;11.07;;;6.45;;
44850;SDS011;30583;48.714;9.386;2022-12-29T00:32:09;11.52;;;6.43;;
44850;SDS011;30583;48.714;9.386;2022-12-29T00:34:54;11.75;;;6.78;;
44850;SDS011;30583;48.714;9.386;2022-12-29T00:37:41;14.30;;;7.10;;
44850;SDS011;30583;48.714;9.386;2022-12-29T00:40:27;12.18;;;7.60;;
44850;SDS011;30583;48.714;9.386;2022-12-29T00:43:11;9.50;;;6.63;;
44850;SDS011;30583;48.714;9.386;2022-12-29T00:45:55;9.70;;;6.68;;
44850;SDS011;30583;48.714;9.386;2022-12-29T00:48:21;13.13;;;7.82;;
44850;SDS011;30583;48.714;9.386;2022-12-29T00:53:32;11.95;;;8.02;;
44850;SDS011;30583;48.714;9.386;2022-12-29T00:55:58;12.90;;;8.10;;
44850;SDS011;30583;48.714;9.386;2022-12-29T00:58:26;11.77;;;7.28;;
44850;SDS011;30583;48.714;9.386;2022-12-29T01:01:00;11.98;;;6.90;;
44850;SDS011;30583;48.714;9.386;2022-12-29T01:03:27;10.07;;;6.72;;
44850;SDS011;30583;48.714;9.386;2022-12-29T01:05:52;10.50;;;6.05;;
44850;SDS011;30583;48.714;9.386;2022-12-29T01:08:18;9.65;;;5.90;;
44850;SDS011;30583;48.714;9.386;2022-12-29T01:10:43;10.05;;;6.65;;
44850;SDS011;30583;48.714;9.386;2022-12-29T01:13:09;10.82;;;6.78;;
44850;SDS011;30583;48.714;9.386;2022-12-29T01:15:34;10.10;;;6.25;;
44850;SDS011;30583;48.714;9.386;2022-12-29T01:18:00;9.18;;;6.35;;
44850;SDS011;30583;48.714;9.386;2022-12-29T01:20:25;10.65;;;7.35;;
44850;SDS011;30583;48.714;9.386;2022-12-29T01:22:53;10.95;;;6.88;;
44850;SDS011;30583;48.714;9.386;2022-12-29T01:25:19;9.70;;;6.20;;
44850;SDS011;30583;48.714;9.386;2022-12-29T01:27:45;10.98;;;6.03;;
44850;SDS011;30583;48.714;9.386;2022-12-29T01:30:10;9.48;;;5.72;;
44850;SDS011;30583;48.714;9.386;2022-12-29T01:32:36;8.57;;;5.55;;
44850;SDS011;30583;48.714;9.386;2022-12-29T01:35:02;9.02;;;5.63;;
44850;SDS011;30583;48.714;9.386;2022-12-29T01:37:28;9.68;;;6.20;;
44850;SDS011;30583;48.714;9.386;2022-12-29T01:39:54;8.73;;;6.10;;
44850;SDS011;30583;48.714;9.386;2022-12-29T01:42:22;8.07;;;6.20;;
44850;SDS011;30583;48.714;9.386;2022-12-29T01:50:03;12.25;;;5.68;;
44850;SDS011;30583;48.714;9.386;2022-12-29T01:52:58;8.73;;;5.88;;
44850;SDS011;30583;48.714;9.386;2022-12-29T01:55:30;12.65;;;5.75;;
44850;SDS011;30583;48.714;9.386;2022-12-29T02:00:27;7.50;;;5.13;;
44850;SDS011;30583;48.714;9.386;2022-12-29T02:02:53;7.80;;;4.95;;
44850;SDS011;30583;48.714;9.386;2022-12-29T02:05:31;8.88;;;5.72;;
44850;SDS011;30583;48.714;9.386;2022-12-29T02:08:02;7.82;;;5.43;;
44850;SDS011;30583;48.714;9.386;2022-12-29T02:10:29;8.43;;;5.05;;
44850;SDS011;30583;48.714;9.386;2022-12-29T02:12:57;7.60;;;4.57;;
44850;SDS011;30583;48.714;9.386;2022-12-29T02:18:18;9.20;;;5.07;;
44850;SDS011;30583;48.714;9.386;2022-12-29T02:36:00;10.20;;;5.18;;
44850;SDS011;30583;48.714;9.386;2022-12-29T02:39:28;8.57;;;5.07;;
44850;SDS011;30583;48.714;9.386;2022-12-29T02:41:33;7.00;;;4.78;;
44850;SDS011;30583;48.714;9.386;2022-12-29T02:44:10;9.80;;;4.72;;
44850;SDS011;30583;48.714;9.386;2022-12-29T02:46:51;8.27;;;4.97;;
44850;SDS011;30583;48.714;9.386;2022-12-29T02:52:07;9.13;;;5.68;;
44850;SDS011;30583;48.714;9.386;2022-12-29T02:54:39;7.90;;;4.82;;
44850;SDS011;30583;48.714;9.386;2022-12-29T02:57:31;8.02;;;5.35;;
44850;SDS011;30583;48.714;9.386;2022-12-29T03:00:07;8.52;;;4.90;;
44850;SDS011;30583;48.714;9.386;2022-12-29T03:08:33;8.60;;;5.00;;
44850;SDS011;30583;48.714;9.386;2022-12-29T03:11:24;8.77;;;5.13;;
44850;SDS011;30583;48.714;9.386;2022-12-29T03:17:03;10.82;;;5.50;;
44850;SDS011;30583;48.714;9.386;2022-12-29T03:19:40;8.35;;;5.25;;
44850;SDS011;30583;48.714;9.386;2022-12-29T03:22:13;9.57;;;5.85;;
44850;SDS011;30583;48.714;9.386;2022-12-29T03:25:01;8.85;;;5.53;;
44850;SDS011;30583;48.714;9.386;2022-12-29T03:27:49;7.25;;;4.78;;
44850;SDS011;30583;48.714;9.386;2022-12-29T03:30:18;8.50;;;4.72;;
44850;SDS011;30583;48.714;9.386;2022-12-29T03:32:45;7.32;;;3.78;;
44850;SDS011;30583;48.714;9.386;2022-12-29T03:35:22;8.35;;;2.78;;
44850;SDS011;30583;48.714;9.386;2022-12-29T03:40:53;5.70;;;2.40;;
44850;SDS011;30583;48.714;9.386;2022-12-29T03:43:22;4.93;;;2.20;;
44850;SDS011;30583;48.714;9.386;2022-12-29T03:45:48;4.65;;;1.60;;
44850;SDS011;30583;48.714;9.386;2022-12-29T03:48:14;4.28;;;1.52;;
44850;SDS011;30583;48.714;9.386;2022-12-29T03:50:39;4.00;;;1.50;;
44850;SDS011;30583;48.714;9.386;2022-12-29T03:53:05;2.88;;;1.30;;
44850;SDS011;30583;48.714;9.386;2022-12-29T03:55:30;2.15;;;1.10;;
44850;SDS011;30583;48.714;9.386;2022-12-29T03:57:56;3.47;;;1.20;;
44850;SDS011;30583;48.714;9.386;2022-12-29T04:00:22;2.55;;;1.10;;
44850;SDS011;30583;48.714;9.386;2022-12-29T04:02:47;4.10;;;1.30;;
44850;SDS011;30583;48.714;9.386;2022-12-29T04:05:13;3.00;;;1.30;;
44850;SDS011;30583;48.714;9.386;2022-12-29T04:07:39;2.78;;;1.45;;
44850;SDS011;30583;48.714;9.386;2022-12-29T04:10:04;4.15;;;1.90;;
44850;SDS011;30583;48.714;9.386;2022-12-29T04:12:30;2.65;;;1.35;;
44850;SDS011;30583;48.714;9.386;2022-12-29T04:14:56;2.65;;;1.10;;
44850;SDS011;30583;48.714;9.386;2022-12-29T04:17:21;3.50;;;1.25;;
44850;SDS011;30583;48.714;9.386;2022-12-29T04:19:48;3.13;;;1.25;;
44850;SDS011;30583;48.714;9.386;2022-12-29T04:22:13;3.28;;;1.52;;
44850;SDS011;30583;48.714;9.386;2022-12-29T04:24:39;3.03;;;1.40;;
44850;SDS011;30583;48.714;9.386;2022-12-29T04:27:04;2.38;;;1.50;;
44850;SDS011;30583;48.714;9.386;2022-12-29T04:29:30;3.20;;;1.20;;
44850;SDS011;30583;48.714;9.386;2022-12-29T04:31:56;10.57;;;3.10;;
44850;SDS011;30583;48.714;9.386;2022-12-29T04:34:21;3.58;;;1.52;;
44850;SDS011;30583;48.714;9.386;2022-12-29T04:36:47;3.63;;;1.42;;
44850;SDS011;30583;48.714;9.386;2022-12-29T04:39:12;2.80;;;1.10;;
44850;SDS011;30583;48.714;9.386;2022-12-29T04:41:38;4.15;;;1.00;;
44850;SDS011;30583;48.714;9.386;2022-12-29T04:44:04;2.28;;;1.30;;
44850;SDS011;30583;48.714;9.386;2022-12-29T04:46:29;3.17;;;1.15;;
44850;SDS011;30583;48.714;9.386;2022-12-29T04:48:55;3.67;;;1.30;;
44850;SDS011;30583;48.714;9.386;2022-12-29T04:51:20;6.13;;;1.33;;
44850;SDS011;30583;48.714;9.386;2022-12-29T04:53:46;2.20;;;1.08;;
44850;SDS011;30583;48.714;9.386;2022-12-29T04:56:11;3.70;;;1.48;;
44850;SDS011;30583;48.714;9.386;2022-12-29T04:58:37;4.60;;;1.23;;
44850;SDS011;30583;48.714;9.386;2022-12-29T05:01:03;3.53;;;1.60;;
44850;SDS011;30583;48.714;9.386;2022-12-29T05:03:28;4.50;;;1.50;;
44850;SDS011;30583;48.714;9.386;2022-12-29T05:05:54;5.25;;;1.88;;
44850;SDS011;30583;48.714;9.386;2022-12-29T05:08:21;3.03;;;1.40;;
44850;SDS011;30583;48.714;9.386;2022-12-29T05:10:47;5.80;;;1.90;;
44850;SDS011;30583;48.714;9.386;2022-12-29T05:13:14;4.22;;;1.35;;
44850;SDS011;30583;48.714;9.386;2022-12-29T05:15:40;5.00;;;1.30;;
44850;SDS011;30583;48.714;9.386;2022-12-29T05:18:05;3.35;;;1.30;;
44850;SDS011;30583;48.714;9.386;2022-12-29T05:20:31;4.18;;;1.33;;
44850;SDS011;30583;48.714;9.386;2022-12-29T05:22:56;3.05;;;1.38;;
44850;SDS011;30583;48.714;9.386;2022-12-29T05:25:22;42.55;;;28.17;;
44850;SDS011;30583;48.714;9.386;2022-12-29T05:27:47;4.97;;;2.90;;
44850;SDS011;30583;48.714;9.386;2022-12-29T05:30:13;5.63;;;3.10;;
44850;SDS011;30583;48.714;9.386;2022-12-29T05:32:39;5.70;;;1.33;;
44850;SDS011;30583;48.714;9.386;2022-12-29T05:35:04;3.88;;;1.50;;
44850;SDS011;30583;48.714;9.386;2022-12-29T05:37:30;3.67;;;1.42;;
44850;SDS011;30583;48.714;9.386;2022-12-29T05:39:56;6.35;;;1.63;;
44850;SDS011;30583;48.714;9.386;2022-12-29T05:42:21;5.90;;;1.95;;
44850;SDS011;30583;48.714;9.386;2022-12-29T05:44:47;5.25;;;1.67;;
44850;SDS011;30583;48.714;9.386;2022-12-29T05:47:15;3.33;;;1.48;;
44850;SDS011;30583;48.714;9.386;2022-12-29T05:49:40;3.53;;;1.48;;
44850;SDS011;30583;48.714;9.386;2022-12-29T05:52:06;4.03;;;1.63;;
44850;SDS011;30583;48.714;9.386;2022-12-29T05:54:31;5.03;;;1.45;;
44850;SDS011;30583;48.714;9.386;2022-12-29T05:56:57;5.90;;;1.70;;
44850;SDS011;30583;48.714;9.386;2022-12-29T05:59:22;3.13;;;1.50;;
44850;SDS011;30583;48.714;9.386;2022-12-29T06:01:48;2.72;;;1.40;;
44850;SDS011;30583;48.714;9.386;2022-12-29T06:04:14;4.38;;;1.33;;
44850;SDS011;30583;48.714;9.386;2022-12-29T06:06:39;4.43;;;1.50;;
44850;SDS011;30583;48.714;9.386;2022-12-29T06:09:05;3.60;;;1.40;;
44850;SDS011;30583;48.714;9.386;2022-12-29T06:11:31;5.10;;;1.50;;
44850;SDS011;30583;48.714;9.386;2022-12-29T06:13:56;4.78;;;1.83;;
44850;SDS011;30583;48.714;9.386;2022-12-29T06:16:22;4.00;;;1.70;;
44850;SDS011;30583;48.714;9.386;2022-12-29T06:18:47;3.78;;;1.60;;
44850;SDS011;30583;48.714;9.386;2022-12-29T06:21:13;7.63;;;1.70;;
44850;SDS011;30583;48.714;9.386;2022-12-29T06:23:38;4.78;;;1.70;;
44850;SDS011;30583;48.714;9.386;2022-12-29T06:26:04;4.00;;;1.80;;
44850;SDS011;30583;48.714;9.386;2022-12-29T06:28:30;3.42;;;1.40;;
44850;SDS011;30583;48.714;9.386;2022-12-29T06:30:55;3.28;;;1.60;;
44850;SDS011;30583;48.714;9.386;2022-12-29T06:33:22;5.82;;;2.05;;
44850;SDS011;30583;48.714;9.386;2022-12-29T06:35:48;3.38;;;1.63;;
44850;SDS011;30583;48.714;9.386;2022-12-29T06:38:13;3.60;;;1.60;;
44850;SDS011;30583;48.714;9.386;2022-12-29T06:40:39;4.43;;;1.52;;
44850;SDS011;30583;48.714;9.386;2022-12-29T06:43:06;5.65;;;1.58;;
44850;SDS011;30583;48.714;9.386;2022-12-29T06:45:32;3.15;;;1.65;;
44850;SDS011;30583;48.714;9.386;2022-12-29T06:47:57;2.65;;;1.30;;
44850;SDS011;30583;48.714;9.386;2022-12-29T06:50:23;5.90;;;1.92;;
44850;SDS011;30583;48.714;9.386;2022-12-29T06:52:49;3.30;;;1.55;;
44850;SDS011;30583;48.714;9.386;2022-12-29T06:55:14;3.35;;;1.50;;
44850;SDS011;30583;48.714;9.386;2022-12-29T06:57:40;2.72;;;1.92;;
44850;SDS011;30583;48.714;9.386;2022-12-29T07:00:05;3.67;;;1.63;;
44850;SDS011;30583;48.714;9.386;2022-12-29T07:02:33;4.15;;;2.10;;
44850;SDS011;30583;48.714;9.386;2022-12-29T07:04:58;4.38;;;2.08;;
44850;SDS011;30583;48.714;9.386;2022-12-29T07:07:24;6.50;;;2.05;;
44850;SDS011;30583;48.714;9.386;2022-12-29T07:09:49;4.93;;;1.90;;
44850;SDS011;30583;48.714;9.386;2022-12-29T07:12:15;3.90;;;1.88;;
44850;SDS011;30583;48.714;9.386;2022-12-29T07:14:40;3.08;;;1.48;;
44850;SDS011;30583;48.714;9.386;2022-12-29T07:17:06;5.35;;;2.28;;
44850;SDS011;30583;48.714;9.386;2022-12-29T07:19:32;4.60;;;2.22;;
44850;SDS011;30583;48.714;9.386;2022-12-29T07:21:58;12.30;;;7.05;;
44850;SDS011;30583;48.714;9.386;2022-12-29T07:24:24;16.15;;;10.63;;
44850;SDS011;30583;48.714;9.386;2022-12-29T07:26:52;11.95;;;6.35;;
44850;SDS011;30583;48.714;9.386;2022-12-29T07:29:18;10.98;;;5.40;;
44850;SDS011;30583;48.714;9.386;2022-12-29T07:31:44;8.65;;;4.20;;
44850;SDS011;30583;48.714;9.386;2022-12-29T07:34:09;21.52;;;7.47;;
44850;SDS011;30583;48.714;9.386;2022-12-29T07:36:35;17.60;;;7.40;;
44850;SDS011;30583;48.714;9.386;2022-12-29T07:39:01;20.88;;;7.65;;
44850;SDS011;30583;48.714;9.386;2022-12-29T07:41:26;20.02;;;7.75;;
44850;SDS011;30583;48.714;9.386;2022-12-29T07:43:52;18.40;;;5.93;;
44850;SDS011;30583;48.714;9.386;2022-12-29T07:46:18;13.30;;;5.05;;
44850;SDS011;30583;48.714;9.386;2022-12-29T07:48:43;11.05;;;4.65;;
44850;SDS011;30583;48.714;9.386;2022-12-29T07:51:09;8.38;;;3.60;;
44850;SDS011;30583;48.714;9.386;2022-12-29T07:53:34;8.25;;;3.83;;
44850;SDS011;30583;48.714;9.386;2022-12-29T07:56:00;4.53;;;2.55;;
44850;SDS011;30583;48.714;9.386;2022-12-29T07:58:26;11.02;;;4.38;;
44850;SDS011;30583;48.714;9.386;2022-12-29T08:00:54;12.20;;;5.75;;
44850;SDS011;30583;48.714;9.386;2022-12-29T08:03:20;12.07;;;5.30;;
44850;SDS011;30583;48.714;9.386;2022-12-29T08:05:46;9.00;;;5.43;;
44850;SDS011;30583;48.714;9.386;2022-12-29T08:08:12;13.80;;;5.93;;
44850;SDS011;30583;48.714;9.386;2022-12-29T08:10:37;47.40;;;13.75;;
44850;SDS011;30583;48.714;9.386;2022-12-29T08:13:03;34.42;;;11.82;;
44850;SDS011;30583;48.714;9.386;2022-12-29T08:15:28;30.75;;;15.18;;
44850;SDS011;30583;48.714;9.386;2022-12-29T08:17:54;30.25;;;14.07;;
44850;SDS011;30583;48.714;9.386;2022-12-29T08:20:20;23.67;;;12.27;;
44850;SDS011;30583;48.714;9.386;2022-12-29T08:22:45;20.52;;;10.80;;
44850;SDS011;30583;48.714;9.386;2022-12-29T08:25:11;17.58;;;8.82;;
44850;SDS011;30583;48.714;9.386;2022-12-29T08:27:36;19.17;;;8.85;;
44850;SDS011;30583;48.714;9.386;2022-12-29T08:30:02;15.90;;;9.00;;
44850;SDS011;30583;48.714;9.386;2022-12-29T08:32:28;20.30;;;10.63;;
44850;SDS011;30583;48.714;9.386;2022-12-29T08:34:54;17.83;;;10.13;;
44850;SDS011;30583;48.714;9.386;2022-12-29T08:37:20;29.73;;;12.35;;
44850;SDS011;30583;48.714;9.386;2022-12-29T08:39:46;36.22;;;14.45;;
44850;SDS011;30583;48.714;9.386;2022-12-29T08:42:12;27.25;;;12.38;;
44850;SDS011;30583;48.714;9.386;2022-12-29T08:44:38;25.02;;;11.32;;
44850;SDS011;30583;48.714;9.386;2022-12-29T08:47:04;25.85;;;10.82;;
44850;SDS011;30583;48.714;9.386;2022-12-29T08:49:30;16.85;;;8.32;;
44850;SDS011;30583;48.714;9.386;2022-12-29T08:51:55;16.58;;;6.88;;
44850;SDS011;30583;48.714;9.386;2022-12-29T08:54:21;15.32;;;7.82;;
44850;SDS011;30583;48.714;9.386;2022-12-29T08:56:47;11.93;;;7.20;;
44850;SDS011;30583;48.714;9.386;2022-12-29T08:59:12;15.02;;;7.60;;
44850;SDS011;30583;48.714;9.386;2022-12-29T09:01:38;13.93;;;7.68;;
44850;SDS011;30583;48.714;9.386;2022-12-29T09:04:05;18.02;;;9.13;;
44850;SDS011;30583;48.714;9.386;2022-12-29T09:06:31;19.52;;;9.77;;
44850;SDS011;30583;48.714;9.386;2022-12-29T09:08:57;22.08;;;10.40;;
44850;SDS011;30583;48.714;9.386;2022-12-29T09:11:23;17.58;;;8.85;;
44850;SDS011;30583;48.714;9.386;2022-12-29T09:13:50;19.33;;;9.23;;
44850;SDS011;30583;48.714;9.386;2022-12-29T09:16:16;15.52;;;8.68;;
44850;SDS011;30583;48.714;9.386;2022-12-29T09:18:42;15.20;;;8.55;;
44850;SDS011;30583;48.714;9.386;2022-12-29T09:21:09;25.98;;;15.65;;
44850;SDS011;30583;48.714;9.386;2022-12-29T09:23:35;18.63;;;11.48;;
44850;SDS011;30583;48.714;9.386;2022-12-29T09:26:01;17.92;;;11.43;;
44850;SDS011;30583;48.714;9.386;2022-12-29T09:28:27;19.33;;;12.45;;
44850;SDS011;30583;48.714;9.386;2022-12-29T09:30:54;19.23;;;9.98;;
44850;SDS011;30583;48.714;9.386;2022-12-29T09:33:21;15.70;;;8.63;;
44850;SDS011;30583;48.714;9.386;2022-12-29T09:35:50;15.23;;;7.45;;
44850;SDS011;30583;48.714;9.386;2022-12-29T09:38:17;13.18;;;7.35;;
44850;SDS011;30583;48.714;9.386;2022-12-29T09:40:45;13.23;;;8.20;;
44850;SDS011;30583;48.714;9.386;2022-12-29T09:43:36;22.38;;;16.38;;
44850;SDS011;30583;48.714;9.386;2022-12-29T09:46:15;13.98;;;8.13;;
44850;SDS011;30583;48.714;9.386;2022-12-29T09:51:48;7.82;;;3.10;;
44850;SDS011;30583;48.714;9.386;2022-12-29T09:56:56;8.52;;;3.42;;
44850;SDS011;30583;48.714;9.386;2022-12-29T09:59:24;4.50;;;1.98;;
44850;SDS011;30583;48.714;9.386;2022-12-29T10:02:02;4.28;;;2.50;;
44850;SDS011;30583;48.714;9.386;2022-12-29T10:04:40;3.90;;;1.70;;
44850;SDS011;30583;48.714;9.386;2022-12-29T10:07:17;4.00;;;2.15;;
44850;SDS011;30583;48.714;9.386;2022-12-29T10:18:10;9.18;;;5.32;;
44850;SDS011;30583;48.714;9.386;2022-12-29T10:20:48;4.65;;;1.70;;
44850;SDS011;30583;48.714;9.386;2022-12-29T10:25:57;5.15;;;2.45;;
44850;SDS011;30583;48.714;9.386;2022-12-29T10:28:33;6.50;;;2.60;;
44850;SDS011;30583;48.714;9.386;2022-12-29T10:31:07;2.63;;;1.95;;
44850;SDS011;30583;48.714;9.386;2022-12-29T10:33:42;6.32;;;1.83;;
44850;SDS011;30583;48.714;9.386;2022-12-29T10:36:10;2.35;;;1.42;;
44850;SDS011;30583;48.714;9.386;2022-12-29T10:38:48;3.53;;;1.58;;
44850;SDS011;30583;48.714;9.386;2022-12-29T10:43:57;18.02;;;10.10;;
44850;SDS011;30583;48.714;9.386;2022-12-29T10:46:25;4.20;;;1.90;;
44850;SDS011;30583;48.714;9.386;2022-12-29T10:48:54;5.20;;;2.83;;
44850;SDS011;30583;48.714;9.386;2022-12-29T10:51:24;3.97;;;1.85;;
44850;SDS011;30583;48.714;9.386;2022-12-29T10:53:59;4.07;;;1.70;;
44850;SDS011;30583;48.714;9.386;2022-12-29T10:59:18;12.35;;;8.25;;
44850;SDS011;30583;48.714;9.386;2022-12-29T11:07:12;3.55;;;1.65;;
44850;SDS011;30583;48.714;9.386;2022-12-29T11:09:42;3.33;;;1.85;;
44850;SDS011;30583;48.714;9.386;2022-12-29T11:17:56;6.13;;;1.50;;
44850;SDS011;30583;48.714;9.386;2022-12-29T11:20:36;5.05;;;1.60;;
44850;SDS011;30583;48.714;9.386;2022-12-29T11:23:03;3.35;;;1.88;;
44850;SDS011;30583;48.714;9.386;2022-12-29T11:25:45;4.05;;;1.42;;
44850;SDS011;30583;48.714;9.386;2022-12-29T11:28:15;3.13;;;1.30;;
44850;SDS011;30583;48.714;9.386;2022-12-29T11:30:41;3.33;;;1.55;;
44850;SDS011;30583;48.714;9.386;2022-12-29T11:33:08;4.18;;;1.30;;
44850;SDS011;30583;48.714;9.386;2022-12-29T11:35:41;5.90;;;1.60;;
44850;SDS011;30583;48.714;9.386;2022-12-29T11:38:20;3.65;;;1.75;;
44850;SDS011;30583;48.714;9.386;2022-12-29T11:40:50;6.43;;;2.63;;
44850;SDS011;30583;48.714;9.386;2022-12-29T11:43:22;3.80;;;1.38;;
44850;SDS011;30583;48.714;9.386;2022-12-29T11:45:58;2.53;;;1.30;;
44850;SDS011;30583;48.714;9.386;2022-12-29T11:48:24;2.80;;;1.73;;
44850;SDS011;30583;48.714;9.386;2022-12-29T11:50:54;3.95;;;2.05;;
44850;SDS011;30583;48.714;9.386;2022-12-29T11:53:24;4.05;;;1.77;;
44850;SDS011;30583;48.714;9.386;2022-12-29T11:56:02;3.10;;;1.38;;
44850;SDS011;30583;48.714;9.386;2022-12-29T11:58:32;5.35;;;1.77;;
44850;SDS011;30583;48.714;9.386;2022-12-29T12:01:00;4.68;;;1.95;;
44850;SDS011;30583;48.714;9.386;2022-12-29T12:03:46;4.70;;;1.67;;
44850;SDS011;30583;48.714;9.386;2022-12-29T12:06:19;6.88;;;2.90;;
44850;SDS011;30583;48.714;9.386;2022-12-29T12:08:53;4.80;;;2.00;;
44850;SDS011;30583;48.714;9.386;2022-12-29T12:11:24;5.13;;;1.70;;
44850;SDS011;30583;48.714;9.386;2022-12-29T12:14:11;2.90;;;1.52;;
44850;SDS011;30583;48.714;9.386;2022-12-29T12:16:41;5.47;;;2.00;;
44850;SDS011;30583;48.714;9.386;2022-12-29T12:19:43;5.45;;;1.83;;
44850;SDS011;30583;48.714;9.386;2022-12-29T12:25:16;4.88;;;2.67;;
44850;SDS011;30583;48.714;9.386;2022-12-29T12:27:53;4.43;;;1.90;;
44850;SDS011;30583;48.714;9.386;2022-12-29T12:30:43;3.85;;;1.90;;
44850;SDS011;30583;48.714;9.386;2022-12-29T12:33:19;6.05;;;3.58;;
44850;SDS011;30583;48.714;9.386;2022-12-29T12:44:18;5.68;;;2.85;;
44850;SDS011;30583;48.714;9.386;2022-12-29T12:47:20;2.97;;;1.50;;
44850;SDS011;30583;48.714;9.386;2022-12-29T13:07:40;6.13;;;2.80;;
44850;SDS011;30583;48.714;9.386;2022-12-29T13:10:15;5.65;;;1.90;;
44850;SDS011;30583;48.714;9.386;2022-12-29T13:20:38;2.97;;;1.70;;
44850;SDS011;30583;48.714;9.386;2022-12-29T13:23:15;4.07;;;2.10;;
44850;SDS011;30583;48.714;9.386;2022-12-29T13:25:52;4.22;;;1.80;;
44850;SDS011;30583;48.714;9.386;2022-12-29T13:28:51;5.03;;;1.77;;
44850;SDS011;30583;48.714;9.386;2022-12-29T13:32:16;4.43;;;2.00;;
44850;SDS011;30583;48.714;9.386;2022-12-29T13:37:01;2.72;;;1.40;;
44850;SDS011;30583;48.714;9.386;2022-12-29T13:39:35;3.53;;;1.58;;
44850;SDS011;30583;48.714;9.386;2022-12-29T13:42:04;3.25;;;1.90;;
44850;SDS011;30583;48.714;9.386;2022-12-29T13:44:35;4.82;;;1.95;;
44850;SDS011;30583;48.714;9.386;2022-12-29T13:49:57;3.78;;;1.98;;
44850;SDS011;30583;48.714;9.386;2022-12-29T13:52:27;5.57;;;2.00;;
44850;SDS011;30583;48.714;9.386;2022-12-29T14:00:30;4.93;;;2.17;;
44850;SDS011;30583;48.714;9.386;2022-12-29T14:05:37;7.40;;;3.72;;
44850;SDS011;30583;48.714;9.386;2022-12-29T14:08:03;4.70;;;2.08;;
44850;SDS011;30583;48.714;9.386;2022-12-29T14:13:10;7.10;;;3.15;;
44850;SDS011;30583;48.714;9.386;2022-12-29T14:15:42;4.68;;;2.30;;
44850;SDS011;30583;48.714;9.386;2022-12-29T14:18:14;3.97;;;2.42;;
44850;SDS011;30583;48.714;9.386;2022-12-29T14:21:11;4.80;;;2.10;;
44850;SDS011;30583;48.714;9.386;2022-12-29T14:23:48;7.50;;;2.72;;
44850;SDS011;30583;48.714;9.386;2022-12-29T14:28:56;9.55;;;4.38;;
44850;SDS011;30583;48.714;9.386;2022-12-29T14:31:40;4.78;;;2.30;;
44850;SDS011;30583;48.714;9.386;2022-12-29T14:47:33;7.50;;;3.97;;
44850;SDS011;30583;48.714;9.386;2022-12-29T14:50:04;7.43;;;3.40;;
44850;SDS011;30583;48.714;9.386;2022-12-29T14:52:48;8.73;;;3.58;;
44850;SDS011;30583;48.714;9.386;2022-12-29T14:57:50;13.90;;;7.72;;
44850;SDS011;30583;48.714;9.386;2022-12-29T15:00:27;8.10;;;5.50;;
44850;SDS011;30583;48.714;9.386;2022-12-29T15:03:05;5.25;;;2.85;;
44850;SDS011;30583;48.714;9.386;2022-12-29T15:05:35;10.85;;;5.93;;
44850;SDS011;30583;48.714;9.386;2022-12-29T15:08:06;15.57;;;8.65;;
44850;SDS011;30583;48.714;9.386;2022-12-29T15:13:22;6.88;;;4.25;;
44850;SDS011;30583;48.714;9.386;2022-12-29T15:15:50;10.25;;;5.65;;
44850;SDS011;30583;48.714;9.386;2022-12-29T15:20:55;7.32;;;4.35;;
44850;SDS011;30583;48.714;9.386;2022-12-29T15:23:23;6.55;;;3.78;;
44850;SDS011;30583;48.714;9.386;2022-12-29T15:25:56;4.75;;;2.70;;
44850;SDS011;30583;48.714;9.386;2022-12-29T15:28:26;6.90;;;4.05;;
44850;SDS011;30583;48.714;9.386;2022-12-29T15:30:56;7.47;;;5.10;;
44850;SDS011;30583;48.714;9.386;2022-12-29T15:33:27;9.80;;;4.25;;
44850;SDS011;30583;48.714;9.386;2022-12-29T15:35:54;8.63;;;4.63;;
44850;SDS011;30583;48.714;9.386;2022-12-29T15:38:22;8.15;;;5.63;;
44850;SDS011;30583;48.714;9.386;2022-12-29T15:41:02;7.88;;;4.43;;
44850;SDS011;30583;48.714;9.386;2022-12-29T15:43:58;8.07;;;4.20;;
44850;SDS011;30583;48.714;9.386;2022-12-29T15:46:37;8.48;;;3.95;;
44850;SDS011;30583;48.714;9.386;2022-12-29T15:49:09;8.35;;;3.88;;
44850;SDS011;30583;48.714;9.386;2022-12-29T15:51:38;5.60;;;4.55;;
44850;SDS011;30583;48.714;9.386;2022-12-29T15:54:05;5.75;;;3.80;;
44850;SDS011;30583;48.714;9.386;2022-12-29T15:56:31;6.70;;;3.88;;
44850;SDS011;30583;48.714;9.386;2022-12-29T15:58:58;5.78;;;3.92;;
44850;SDS011;30583;48.714;9.386;2022-12-29T16:01:32;6.80;;;3.15;;
44850;SDS011;30583;48.714;9.386;2022-12-29T16:04:00;5.25;;;3.00;;
44850;SDS011;30583;48.714;9.386;2022-12-29T16:06:35;6.68;;;3.45;;
44850;SDS011;30583;48.714;9.386;2022-12-29T16:09:03;31.48;;;11.60;;
44850;SDS011;30583;48.714;9.386;2022-12-29T16:11:38;32.92;;;12.77;;
44850;SDS011;30583;48.714;9.386;2022-12-29T16:14:10;22.38;;;9.10;;
44850;SDS011;30583;48.714;9.386;2022-12-29T16:16:45;15.63;;;10.32;;
44850;SDS011;30583;48.714;9.386;2022-12-29T16:19:14;12.45;;;7.47;;
44850;SDS011;30583;48.714;9.386;2022-12-29T16:21:43;6.45;;;4.80;;
44850;SDS011;30583;48.714;9.386;2022-12-29T16:24:12;8.18;;;5.20;;
44850;SDS011;30583;48.714;9.386;2022-12-29T16:26:47;9.15;;;5.10;;
44850;SDS011;30583;48.714;9.386;2022-12-29T16:29:15;7.47;;;4.55;;
44850;SDS011;30583;48.714;9.386;2022-12-29T16:31:49;13.25;;;5.72;;
44850;SDS011;30583;48.714;9.386;2022-12-29T16:34:24;12.98;;;7.88;;
44850;SDS011;30583;48.714;9.386;2022-12-29T16:39:38;9.70;;;5.70;;
44850;SDS011;30583;48.714;9.386;2022-12-29T16:50:36;6.78;;;4.50;;
44850;SDS011;30583;48.714;9.386;2022-12-29T16:53:04;9.27;;;4.18;;
44850;SDS011;30583;48.714;9.386;2022-12-29T16:55:32;6.55;;;3.40;;
44850;SDS011;30583;48.714;9.386;2022-12-29T16:57:57;6.22;;;3.67;;
44850;SDS011;30583;48.714;9.386;2022-12-29T17:00:29;8.15;;;4.68;;
44850;SDS011;30583;48.714;9.386;2022-12-29T17:03:00;43.20;;;29.65;;
44850;SDS011;30583;48.714;9.386;2022-12-29T17:05:27;12.82;;;6.63;;
44850;SDS011;30583;48.714;9.386;2022-12-29T17:07:52;8.05;;;5.22;;
44850;SDS011;30583;48.714;9.386;2022-12-29T17:10:19;14.32;;;7.47;;
44850;SDS011;30583;48.714;9.386;2022-12-29T17:12:46;10.90;;;6.57;;
44850;SDS011;30583;48.714;9.386;2022-12-29T17:15:26;21.33;;;11.02;;
44850;SDS011;30583;48.714;9.386;2022-12-29T17:17:57;11.30;;;5.03;;
44850;SDS011;30583;48.714;9.386;2022-12-29T17:20:28;42.83;;;17.23;;
44850;SDS011;30583;48.714;9.386;2022-12-29T17:22:55;6.20;;;3.38;;
44850;SDS011;30583;48.714;9.386;2022-12-29T17:25:29;6.35;;;3.67;;
44850;SDS011;30583;48.714;9.386;2022-12-29T17:27:59;7.35;;;4.45;;
44850;SDS011;30583;48.714;9.386;2022-12-29T17:30:31;9.83;;;3.60;;
44850;SDS011;30583;48.714;9.386;2022-12-29T17:32:59;7.03;;;4.10;;
44850;SDS011;30583;48.714;9.386;2022-12-29T17:35:28;7.30;;;3.10;;
44850;SDS011;30583;48.714;9.386;2022-12-29T17:37:53;5.72;;;2.97;;
44850;SDS011;30583;48.714;9.386;2022-12-29T17:40:20;6.22;;;3.85;;
44850;SDS011;30583;48.714;9.386;2022-12-29T17:42:49;6.97;;;3.63;;
44850;SDS011;30583;48.714;9.386;2022-12-29T17:45:19;7.25;;;2.20;;
44850;SDS011;30583;48.714;9.386;2022-12-29T17:47:48;5.25;;;2.13;;